Time;durP1;ratioP1;P1;durP2;ratioP2;P2;SDS_P1;SDS_P2;PMS_P1;PMS_P2;Temp;Humidity;BMP_temperature;BMP_pressure;BME280_temperature;BME280_humidity;BME280_pressure;Samples;Min_cycle;Max_cycle;Signal;HPM_P1;HPM_P2
2022/06/13 00:00:32;;;;;;;10.00;6.78;;;19.30;67.20;;;;;;5074392;28;20042;-12
2022/06/13 00:02:59;;;;;;;6.93;6.00;;;19.30;67.70;;;;;;5074801;28;20064;-12
2022/06/13 00:05:26;;;;;;;9.65;6.20;;;19.20;67.70;;;;;;5074427;28;20527;-12
2022/06/13 00:07:52;;;;;;;9.85;8.00;;;19.20;67.70;;;;;;5074157;28;20512;-12
2022/06/13 00:10:18;;;;;;;7.82;6.05;;;19.10;67.80;;;;;;5073836;28;20029;-13
2022/06/13 00:12:44;;;;;;;5.95;4.53;;;19.10;68.20;;;;;;5074694;28;20028;-12
2022/06/13 00:15:14;;;;;;;6.35;5.18;;;19.00;68.20;;;;;;5073913;28;20572;-12
2022/06/13 00:17:40;;;;;;;8.05;5.97;;;19.00;68.50;;;;;;5074153;28;20029;-12
2022/06/13 00:20:06;;;;;;;11.00;7.57;;;19.10;69.00;;;;;;5073617;28;20023;-12
2022/06/13 00:22:32;;;;;;;8.43;6.97;;;19.20;69.70;;;;;;5073577;28;20488;-12
2022/06/13 00:24:58;;;;;;;9.88;7.38;;;19.10;69.60;;;;;;5074162;28;20383;-12
2022/06/13 00:27:25;;;;;;;8.48;6.65;;;19.00;69.90;;;;;;5072588;28;20028;-11
2022/06/13 00:29:51;;;;;;;10.70;7.35;;;18.90;70.00;;;;;;5074027;28;20033;-13
2022/06/13 00:32:17;;;;;;;9.50;7.60;;;18.90;70.10;;;;;;5073690;28;20468;-12
2022/06/13 00:34:43;;;;;;;8.40;5.70;;;18.80;70.30;;;;;;5073638;28;20067;-12
2022/06/13 00:37:10;;;;;;;8.63;6.63;;;18.80;69.70;;;;;;5073842;28;20028;-12
2022/06/13 00:39:36;;;;;;;7.53;6.05;;;18.80;69.70;;;;;;5073569;28;20021;-13
2022/06/13 00:42:04;;;;;;;8.75;6.82;;;18.80;69.60;;;;;;5073835;28;20028;-13
2022/06/13 00:44:34;;;;;;;8.25;6.60;;;18.80;69.80;;;;;;5073329;28;20167;-12
2022/06/13 00:47:00;;;;;;;8.93;6.32;;;18.70;69.50;;;;;;5073777;28;20017;-12
2022/06/13 00:49:40;;;;;;;7.22;6.15;;;18.70;69.40;;;;;;5073473;28;20048;-12
2022/06/13 00:52:14;;;;;;;8.70;6.68;;;18.70;69.40;;;;;;5073228;28;20032;-11
2022/06/13 00:54:43;;;;;;;9.43;7.30;;;18.70;69.40;;;;;;5073690;28;20028;-11
2022/06/13 01:00:35;;;;;;;8.43;6.57;;;18.70;70.20;;;;;;5053309;28;20121;-12
2022/06/13 01:03:04;;;;;;;11.05;9.80;;;18.60;69.50;;;;;;5071937;28;20032;-12
2022/06/13 01:05:36;;;;;;;8.60;6.07;;;18.60;69.90;;;;;;5073074;28;20020;-11
2022/06/13 01:08:06;;;;;;;9.00;6.75;;;18.50;69.80;;;;;;5073985;28;20086;-12
2022/06/13 01:13:20;;;;;;;10.43;8.38;;;18.40;70.00;;;;;;5073540;28;20087;-12
2022/06/13 01:16:10;;;;;;;7.70;6.43;;;18.40;70.50;;;;;;5073415;28;20028;-12
2022/06/13 01:19:03;;;;;;;9.48;7.43;;;18.40;70.40;;;;;;5072858;28;20473;-12
2022/06/13 01:21:53;;;;;;;9.75;7.68;;;18.40;70.60;;;;;;5073102;28;20031;-13
2022/06/13 01:24:54;;;;;;;8.95;7.38;;;18.30;71.00;;;;;;5073620;28;20078;-13
2022/06/13 01:28:01;;;;;;;11.02;9.50;;;18.30;70.80;;;;;;5073338;28;20035;-11
2022/06/13 01:30:46;;;;;;;16.88;13.40;;;18.20;71.60;;;;;;5065275;28;20106;-13
2022/06/13 01:33:23;;;;;;;10.40;8.52;;;18.20;71.50;;;;;;5076050;28;20019;-13
2022/06/13 01:35:55;;;;;;;11.70;9.57;;;18.10;71.60;;;;;;5076945;28;20557;-12
2022/06/13 01:38:24;;;;;;;13.35;10.02;;;18.10;71.90;;;;;;5076854;28;20029;-12
2022/06/13 01:41:15;;;;;;;14.52;9.57;;;18.10;71.40;;;;;;5077282;28;20020;-13
2022/06/13 01:44:13;;;;;;;12.27;8.98;;;18.00;71.90;;;;;;5077147;28;20040;-12
2022/06/13 01:46:55;;;;;;;14.40;11.02;;;18.00;72.10;;;;;;5076599;28;20044;-12
2022/06/13 01:49:27;;;;;;;12.45;10.13;;;18.00;72.30;;;;;;5077067;28;20050;-12
2022/06/13 01:52:06;;;;;;;13.23;10.15;;;18.00;72.30;;;;;;5077045;28;20066;-11
2022/06/13 01:55:09;;;;;;;11.38;9.20;;;18.00;72.30;;;;;;5076532;28;20027;-11
2022/06/13 01:57:49;;;;;;;14.87;11.50;;;18.00;73.40;;;;;;5054645;28;20549;-11
2022/06/13 02:00:21;;;;;;;12.07;9.77;;;18.00;72.80;;;;;;5055042;28;20116;-11
2022/06/13 02:02:56;;;;;;;12.02;8.65;;;18.00;72.30;;;;;;5054626;28;20079;-12
2022/06/13 02:05:29;;;;;;;12.70;10.55;;;18.00;72.40;;;;;;5054356;28;20044;-11
2022/06/13 02:08:23;;;;;;;14.07;10.73;;;18.00;72.90;;;;;;5055043;28;20029;-13
2022/06/13 02:10:57;;;;;;;12.20;9.48;;;18.00;73.00;;;;;;5052570;28;20434;-14
2022/06/13 02:13:31;;;;;;;9.85;7.65;;;18.00;72.70;;;;;;5054550;28;20485;-12
2022/06/13 02:15:59;;;;;;;;;;;18.00;72.60;;;;;;5054772;28;20186;-12
2022/06/13 02:18:33;;;;;;;10.23;7.30;;;17.90;72.70;;;;;;5054072;28;20367;-13
2022/06/13 02:21:12;;;;;;;13.40;8.00;;;17.90;72.20;;;;;;5054185;28;20025;-13
2022/06/13 02:23:47;;;;;;;11.75;8.68;;;17.90;72.80;;;;;;5054132;28;20037;-12
2022/06/13 02:26:21;;;;;;;12.38;9.15;;;17.80;72.60;;;;;;5054163;28;20112;-12
2022/06/13 02:28:55;;;;;;;13.88;8.55;;;17.70;72.90;;;;;;5054512;28;20075;-12
2022/06/13 02:31:27;;;;;;;13.77;10.05;;;17.70;73.00;;;;;;5054234;28;20475;-12
2022/06/13 02:34:22;;;;;;;12.05;10.55;;;17.60;73.10;;;;;;5072673;28;20118;-13
2022/06/13 02:37:09;;;;;;;9.95;8.10;;;17.50;73.90;;;;;;5075838;28;20038;-12
2022/06/13 02:39:53;;;;;;;11.77;8.35;;;17.50;73.50;;;;;;5075927;28;20078;-13
2022/06/13 02:42:21;;;;;;;14.13;9.52;;;17.50;73.50;;;;;;5075928;28;20147;-13
2022/06/13 02:45:01;;;;;;;11.90;9.90;;;17.40;73.60;;;;;;5074471;28;20397;-12
2022/06/13 02:47:47;;;;;;;13.35;9.60;;;17.40;73.80;;;;;;5076162;28;20059;-13
2022/06/13 02:51:06;;;;;;;12.77;10.32;;;17.40;73.80;;;;;;5075491;28;20084;-12
2022/06/13 02:53:40;;;;;;;13.30;9.50;;;17.40;74.10;;;;;;5053560;28;20128;-12
2022/06/13 02:56:20;;;;;;;11.55;8.60;;;17.40;74.00;;;;;;5073574;28;20083;-11
2022/06/13 02:59:16;;;;;;;13.43;10.65;;;17.40;74.00;;;;;;5073602;28;20027;-12
2022/06/13 03:01:45;;;;;;;16.08;11.38;;;17.40;74.60;;;;;;5074298;28;20113;-12
2022/06/13 03:04:15;;;;;;;13.93;11.15;;;17.40;74.20;;;;;;5073317;28;20037;-12
2022/06/13 03:06:53;;;;;;;12.23;10.38;;;17.40;74.20;;;;;;5073407;28;20482;-11
2022/06/13 03:09:29;;;;;;;13.15;9.93;;;17.40;74.20;;;;;;5073426;28;20025;-12
2022/06/13 03:12:07;;;;;;;18.13;11.88;;;17.40;74.00;;;;;;5073230;28;20025;-12
2022/06/13 03:14:48;;;;;;;13.43;10.68;;;17.40;74.40;;;;;;5073032;28;20066;-11
2022/06/13 03:17:43;;;;;;;13.18;11.10;;;17.40;74.50;;;;;;5073149;28;20029;-11
2022/06/13 03:20:21;;;;;;;13.05;9.63;;;17.30;74.40;;;;;;5073060;28;20021;-13
2022/06/13 03:23:01;;;;;;;15.98;11.13;;;17.30;74.60;;;;;;5073172;28;20059;-11
2022/06/13 03:25:40;;;;;;;13.65;10.65;;;17.40;74.80;;;;;;5073056;28;20052;-12
2022/06/13 03:28:15;;;;;;;11.65;8.75;;;17.30;74.60;;;;;;5073452;28;20039;-11
2022/06/13 03:30:53;;;;;;;13.32;9.75;;;17.40;74.30;;;;;;5075285;28;20025;-11
2022/06/13 03:33:40;;;;;;;13.98;10.98;;;17.40;74.40;;;;;;5075288;28;20056;-12
2022/06/13 03:36:12;;;;;;;13.90;10.70;;;17.30;74.30;;;;;;5074810;28;20032;-11
2022/06/13 03:38:45;;;;;;;12.93;9.93;;;17.30;74.50;;;;;;5074552;28;20373;-11
2022/06/13 03:41:16;;;;;;;12.98;10.75;;;17.30;74.40;;;;;;5074803;28;20069;-12
2022/06/13 03:44:13;;;;;;;16.55;13.18;;;17.20;74.50;;;;;;5074582;28;20507;-12
2022/06/13 03:46:49;;;;;;;19.23;13.98;;;17.20;75.20;;;;;;5074679;28;20024;-12
2022/06/13 03:49:30;;;;;;;15.32;12.73;;;17.20;75.00;;;;;;5074780;28;20017;-11
2022/06/13 03:52:00;;;;;;;18.02;14.50;;;17.20;75.00;;;;;;5074918;28;20036;-11
2022/06/13 03:54:55;;;;;;;22.45;16.73;;;17.30;75.00;;;;;;5074086;28;20039;-11
2022/06/13 03:57:39;;;;;;;22.35;16.02;;;17.30;76.10;;;;;;5074662;28;20024;-11
2022/06/13 04:00:10;;;;;;;20.30;14.45;;;17.40;75.50;;;;;;5074638;28;20050;-13
2022/06/13 04:02:40;;;;;;;18.52;14.77;;;17.50;75.50;;;;;;5074426;28;20029;-11
2022/06/13 04:05:15;;;;;;;15.07;13.02;;;17.60;75.20;;;;;;5074159;28;20016;-11
2022/06/13 04:07:42;;;;;;;24.77;16.55;;;17.70;76.20;;;;;;5074568;28;20130;-11
2022/06/13 04:10:16;;;;;;;15.50;13.00;;;17.80;75.70;;;;;;5072883;28;20435;-11
2022/06/13 04:12:44;;;;;;;16.60;12.85;;;17.90;75.40;;;;;;5074144;28;20040;-12
2022/06/13 04:15:13;;;;;;;16.00;12.27;;;18.00;75.00;;;;;;5074012;28;20063;-11
2022/06/13 04:17:42;;;;;;;14.10;12.10;;;18.00;75.30;;;;;;5074288;28;20024;-11
2022/06/13 04:20:27;;;;;;;15.32;11.68;;;18.10;75.10;;;;;;5073846;28;20032;-12
2022/06/13 04:23:08;;;;;;;13.05;11.02;;;18.20;75.00;;;;;;5074089;28;20033;-11
2022/06/13 04:25:40;;;;;;;21.70;15.07;;;18.20;74.70;;;;;;5074478;28;20080;-12
2022/06/13 04:28:26;;;;;;;18.27;14.02;;;18.30;74.90;;;;;;5073833;28;20050;-12
2022/06/13 04:30:54;;;;;;;17.88;15.15;;;18.40;76.00;;;;;;5074111;28;20032;-12
2022/06/13 04:33:38;;;;;;;16.58;12.73;;;18.40;76.40;;;;;;5073999;28;20021;-12
2022/06/13 04:36:10;;;;;;;19.88;16.75;;;18.50;76.00;;;;;;5073566;28;20388;-12
2022/06/13 04:38:39;;;;;;;20.13;15.82;;;18.60;76.20;;;;;;5073802;28;20453;-11
2022/06/13 04:41:08;;;;;;;22.05;18.85;;;18.70;76.40;;;;;;5073800;28;20029;-12
2022/06/13 04:43:39;;;;;;;21.98;16.15;;;18.70;76.60;;;;;;5073447;28;20357;-11
2022/06/13 04:46:11;;;;;;;28.48;20.88;;;18.90;76.50;;;;;;5073780;28;20040;-12
2022/06/13 04:48:40;;;;;;;28.08;21.80;;;19.00;77.50;;;;;;5073300;28;20029;-11
2022/06/13 04:51:17;;;;;;;26.25;21.92;;;19.10;77.60;;;;;;5073090;28;20049;-11
2022/06/13 04:54:05;;;;;;;28.45;21.48;;;19.20;77.80;;;;;;5074079;28;20032;-12
2022/06/13 04:56:33;;;;;;;22.73;18.13;;;19.40;77.40;;;;;;5073105;28;20024;-11
2022/06/13 04:59:00;;;;;;;24.65;19.08;;;19.40;76.30;;;;;;5073365;28;20032;-13
2022/06/13 05:01:33;;;;;;;25.98;20.58;;;19.50;76.10;;;;;;5073627;28;20066;-11
2022/06/13 05:04:06;;;;;;;29.90;23.45;;;19.60;76.20;;;;;;5073514;28;20032;-12
2022/06/13 05:06:40;;;;;;;27.80;22.70;;;19.70;77.10;;;;;;5072731;28;20029;-12
2022/06/13 05:09:18;;;;;;;30.15;22.63;;;19.80;76.80;;;;;;5073235;28;20035;-12
2022/06/13 05:11:50;;;;;;;27.98;21.35;;;19.90;76.60;;;;;;5073522;28;20086;-13
2022/06/13 05:14:19;;;;;;;31.80;24.63;;;20.00;76.10;;;;;;5073132;28;20032;-11
2022/06/13 05:16:51;;;;;;;28.00;22.27;;;20.00;76.80;;;;;;5073104;28;20078;-12
2022/06/13 05:19:35;;;;;;;31.38;24.42;;;20.20;75.90;;;;;;5073042;28;20029;-12
2022/06/13 05:22:01;;;;;;;31.15;25.45;;;20.30;76.40;;;;;;5073156;28;20048;-11
2022/06/13 05:24:38;;;;;;;29.77;24.05;;;20.40;77.10;;;;;;5073081;28;20113;-12
2022/06/13 05:27:06;;;;;;;31.75;23.75;;;20.60;75.80;;;;;;5073257;28;20025;-12
2022/06/13 05:29:33;;;;;;;27.63;21.67;;;20.80;76.30;;;;;;5072905;28;20430;-12
2022/06/13 05:31:59;;;;;;;26.88;22.42;;;20.90;75.20;;;;;;5073082;28;20025;-11
2022/06/13 05:34:34;;;;;;;29.73;24.70;;;21.00;75.10;;;;;;5072997;28;20016;-12
2022/06/13 05:37:01;;;;;;;33.08;24.15;;;21.10;75.80;;;;;;5072885;28;20040;-12
2022/06/13 05:39:28;;;;;;;25.77;20.80;;;21.20;75.20;;;;;;5071700;28;20546;-12
2022/06/13 05:41:55;;;;;;;29.40;22.15;;;21.40;75.00;;;;;;5073305;28;20032;-12
2022/06/13 05:44:21;;;;;;;32.42;24.55;;;21.50;75.10;;;;;;5072654;28;20047;-12
2022/06/13 05:46:47;;;;;;;30.65;23.15;;;21.60;74.40;;;;;;5071627;28;20109;-12
2022/06/13 05:49:13;;;;;;;28.70;21.00;;;21.80;73.80;;;;;;5072738;28;20439;-12
2022/06/13 05:51:41;;;;;;;31.35;22.42;;;21.90;73.30;;;;;;5072772;28;20468;-11
2022/06/13 05:54:12;;;;;;;33.92;24.65;;;22.00;73.40;;;;;;5072791;28;20028;-12
2022/06/13 05:56:39;;;;;;;28.17;20.00;;;22.10;73.40;;;;;;5072514;28;20354;-12
2022/06/13 05:59:06;;;;;;;24.60;20.25;;;22.20;72.80;;;;;;5073005;28;20032;-11
2022/06/13 06:01:35;;;;;;;28.90;22.60;;;22.30;73.00;;;;;;5072656;28;20021;-11
2022/06/13 06:04:05;;;;;;;25.73;20.45;;;22.40;72.70;;;;;;5072870;28;20076;-12
2022/06/13 06:06:33;;;;;;;26.42;20.48;;;22.40;72.60;;;;;;5071104;28;20185;-12
2022/06/13 06:09:01;;;;;;;27.17;21.77;;;22.50;72.30;;;;;;5072932;28;20036;-12
2022/06/13 06:11:29;;;;;;;26.73;22.17;;;22.60;72.00;;;;;;5072602;28;20039;-12
2022/06/13 06:13:55;;;;;;;26.40;20.00;;;22.60;72.00;;;;;;5072563;28;20035;-12
2022/06/13 06:16:24;;;;;;;28.77;21.40;;;22.70;71.80;;;;;;5072310;28;20035;-12
2022/06/13 06:18:50;;;;;;;29.92;21.83;;;22.70;71.80;;;;;;5074509;28;20025;-12
2022/06/13 06:21:16;;;;;;;29.73;19.67;;;22.80;71.70;;;;;;5076104;28;20388;-12
2022/06/13 06:23:42;;;;;;;24.58;19.20;;;22.90;71.40;;;;;;5076121;28;20033;-12
2022/06/13 06:26:13;;;;;;;22.73;17.27;;;22.80;71.30;;;;;;5076227;28;20024;-11
2022/06/13 06:28:39;;;;;;;22.52;18.17;;;22.90;71.20;;;;;;5076457;28;20028;-12
2022/06/13 06:31:04;;;;;;;23.25;18.42;;;23.00;70.90;;;;;;5076368;28;20028;-12
2022/06/13 06:33:32;;;;;;;22.33;16.80;;;23.10;70.60;;;;;;5076798;28;20338;-12
2022/06/13 06:35:59;;;;;;;21.38;17.67;;;23.20;70.50;;;;;;5076033;28;20053;-11
2022/06/13 06:38:26;;;;;;;18.73;15.50;;;23.20;70.10;;;;;;5075731;28;20396;-11
2022/06/13 06:40:53;;;;;;;18.80;16.02;;;23.20;70.00;;;;;;5076358;28;20017;-12
2022/06/13 06:43:19;;;;;;;20.85;15.07;;;23.20;69.90;;;;;;5075763;28;20116;-12
2022/06/13 06:45:45;;;;;;;19.58;16.50;;;23.30;70.00;;;;;;5075766;28;20028;-11
2022/06/13 06:48:16;;;;;;;23.75;19.15;;;23.20;70.00;;;;;;5074550;28;20541;-12
2022/06/13 06:50:44;;;;;;;22.70;17.42;;;23.20;70.20;;;;;;5075382;28;20109;-11
2022/06/13 06:53:11;;;;;;;22.33;18.33;;;23.20;70.40;;;;;;5075657;28;20039;-12
2022/06/13 07:01:10;;;;;;;19.73;16.42;;;23.00;71.00;;;;;;5076095;28;20442;-12
2022/06/13 07:03:36;;;;;;;20.20;16.38;;;22.90;71.10;;;;;;5075403;28;20552;-11
2022/06/13 07:06:02;;;;;;;18.70;15.10;;;22.90;71.10;;;;;;5075359;28;20027;-12
2022/06/13 07:08:28;;;;;;;16.45;14.27;;;22.90;71.10;;;;;;5073972;28;20029;-11
2022/06/13 07:13:46;;;;;;;17.13;15.15;;;23.10;71.30;;;;;;5054057;28;20033;-11
2022/06/13 07:16:12;;;;;;;17.67;13.68;;;23.20;71.10;;;;;;5075574;28;20074;-12
2022/06/13 07:18:39;;;;;;;19.20;15.88;;;23.30;71.00;;;;;;5073847;28;20115;-12
2022/06/13 07:21:06;;;;;;;17.13;14.90;;;23.40;70.50;;;;;;5075068;28;20036;-11
2022/06/13 07:23:31;;;;;;;19.35;15.20;;;23.50;70.30;;;;;;5075014;28;20476;-11
2022/06/13 07:25:57;;;;;;;15.45;13.25;;;23.60;70.10;;;;;;5075048;28;20067;-11
2022/06/13 07:28:23;;;;;;;18.08;15.60;;;23.70;70.00;;;;;;5074823;28;20052;-11
2022/06/13 07:30:49;;;;;;;18.33;14.77;;;23.70;69.90;;;;;;5072652;28;20028;-15
2022/06/13 07:33:15;;;;;;;16.52;14.27;;;23.80;69.80;;;;;;5075286;28;20029;-11
2022/06/13 07:35:41;;;;;;;20.05;16.55;;;23.90;70.20;;;;;;5075688;28;20437;-12
2022/06/13 07:38:17;;;;;;;19.02;15.85;;;24.30;69.70;;;;;;5074852;28;20055;-11
2022/06/13 07:40:46;;;;;;;21.80;16.25;;;24.70;69.00;;;;;;5074815;28;20017;-12
2022/06/13 07:43:30;;;;;;;17.65;14.45;;;25.20;67.10;;;;;;5073332;28;20036;-11
2022/06/13 07:45:59;;;;;;;18.10;13.38;;;25.70;65.70;;;;;;5074728;28;20024;-12
2022/06/13 07:48:27;;;;;;;22.15;15.25;;;26.00;64.70;;;;;;5074694;28;20495;-11
2022/06/13 07:50:54;;;;;;;20.42;15.63;;;26.50;62.10;;;;;;5074392;28;20123;-11
2022/06/13 07:53:20;;;;;;;16.67;12.70;;;26.80;60.70;;;;;;5074849;28;20013;-11
2022/06/13 07:55:46;;;;;;;19.15;14.90;;;27.00;60.70;;;;;;5074725;28;20021;-11
2022/06/13 07:58:28;;;;;;;16.35;13.40;;;27.20;58.10;;;;;;5074645;28;20032;-12
2022/06/13 08:00:54;;;;;;;18.70;13.85;;;27.40;58.50;;;;;;5074340;28;20037;-11
2022/06/13 08:03:24;;;;;;;17.17;13.88;;;27.60;57.10;;;;;;5074402;28;20388;-12
2022/06/13 08:05:51;;;;;;;16.20;12.32;;;27.70;56.40;;;;;;5074193;28;20098;-12
2022/06/13 08:08:18;;;;;;;17.23;12.57;;;27.90;56.30;;;;;;5073903;28;20032;-13
2022/06/13 08:10:45;;;;;;;16.20;12.15;;;28.00;56.00;;;;;;5074389;28;20035;-11
2022/06/13 08:13:17;;;;;;;17.33;13.57;;;28.20;55.20;;;;;;5074092;28;20651;-11
2022/06/13 08:15:43;;;;;;;19.05;13.00;;;28.40;54.00;;;;;;5074183;28;20476;-12
2022/06/13 08:18:13;;;;;;;16.17;11.68;;;28.50;54.10;;;;;;5073948;28;20020;-11
2022/06/13 08:20:41;;;;;;;15.18;11.80;;;28.80;54.10;;;;;;5074176;28;20078;-11
2022/06/13 08:23:09;;;;;;;14.52;11.82;;;28.90;53.30;;;;;;5072561;28;20031;-10
2022/06/13 08:25:39;;;;;;;13.95;12.40;;;29.20;52.00;;;;;;5072929;28;20119;-11
2022/06/13 08:28:08;;;;;;;15.77;11.82;;;29.40;50.60;;;;;;5074753;28;20043;-10
2022/06/13 08:30:47;;;;;;;13.40;10.50;;;29.50;50.60;;;;;;5073672;28;20475;-11
2022/06/13 08:33:14;;;;;;;14.18;12.38;;;29.60;51.00;;;;;;5074367;28;20067;-11
2022/06/13 08:35:41;;;;;;;16.42;11.07;;;29.80;50.20;;;;;;5073920;28;20052;-11
2022/06/13 08:38:07;;;;;;;12.20;10.63;;;30.00;49.90;;;;;;5073645;28;20033;-11
2022/06/13 08:40:44;;;;;;;12.30;10.23;;;30.30;48.90;;;;;;5072262;28;20142;-11
2022/06/13 08:43:28;;;;;;;13.07;10.80;;;30.40;49.40;;;;;;5073898;28;20059;-11
2022/06/13 08:46:08;;;;;;;15.65;12.02;;;30.60;48.50;;;;;;5073401;28;20443;-10
2022/06/13 08:48:44;;;;;;;14.00;11.10;;;30.90;49.00;;;;;;5073643;28;20119;-12
2022/06/13 08:51:14;;;;;;;17.73;12.13;;;30.80;48.70;;;;;;5073274;28;20055;-10
2022/06/13 08:53:59;;;;;;;14.02;12.05;;;30.90;48.60;;;;;;5073491;28;20032;-11
2022/06/13 08:56:33;;;;;;;10.80;8.45;;;31.10;47.20;;;;;;5073231;28;20031;-11
2022/06/13 08:59:22;;;;;;;12.10;8.45;;;31.30;48.80;;;;;;5073773;28;20058;-12
2022/06/13 09:02:00;;;;;;;14.80;10.45;;;31.50;48.20;;;;;;5073602;28;20033;-11
2022/06/13 09:04:37;;;;;;;13.50;9.27;;;31.70;45.90;;;;;;5073292;28;20037;-11
2022/06/13 09:07:11;;;;;;;11.95;8.90;;;31.90;44.70;;;;;;5073543;28;20040;-11
2022/06/13 09:09:49;;;;;;;14.48;8.75;;;32.00;43.20;;;;;;5073598;28;20033;-11
2022/06/13 09:12:18;;;;;;;13.18;8.43;;;32.00;43.00;;;;;;5073009;28;20439;-11
2022/06/13 09:15:03;;;;;;;11.48;9.85;;;32.10;43.20;;;;;;5073451;28;20037;-12
2022/06/13 09:18:01;;;;;;;11.02;8.40;;;32.20;43.80;;;;;;5073457;28;20042;-12
2022/06/13 09:20:35;;;;;;;11.77;9.60;;;32.40;43.30;;;;;;5073026;28;20470;-12
2022/06/13 09:23:34;;;;;;;9.98;8.70;;;32.60;44.50;;;;;;5073407;28;20043;-11
2022/06/13 09:26:09;;;;;;;11.70;8.15;;;32.80;42.90;;;;;;5073114;28;20032;-12
2022/06/13 09:28:53;;;;;;;11.02;7.63;;;33.00;43.40;;;;;;5072909;28;20396;-11
2022/06/13 09:31:33;;;;;;;12.02;7.93;;;33.10;41.20;;;;;;5073288;28;20016;-11
2022/06/13 09:34:33;;;;;;;10.00;8.00;;;33.30;41.90;;;;;;5073199;28;20055;-11
2022/06/13 09:37:12;;;;;;;10.95;7.07;;;33.50;41.90;;;;;;5072695;28;20127;-12
2022/06/13 09:39:40;;;;;;;13.98;10.82;;;33.80;40.40;;;;;;5072990;28;20025;-12
2022/06/13 09:42:22;;;;;;;12.40;9.10;;;34.10;41.20;;;;;;5072912;28;20025;-11
2022/06/13 09:44:55;;;;;;;9.32;6.70;;;34.20;41.20;;;;;;5072883;28;20044;-11
2022/06/13 09:47:39;;;;;;;10.35;7.30;;;34.20;41.00;;;;;;5072824;28;20032;-11
2022/06/13 09:50:11;;;;;;;8.95;6.45;;;34.20;39.90;;;;;;5071409;28;20158;-13
2022/06/13 09:53:48;;;;;;;9.20;8.07;;;34.40;40.50;;;;;;5072490;28;20037;-11
2022/06/13 09:56:57;;;;;;;8.35;6.75;;;34.60;40.20;;;;;;4976286;28;20038;-15
2022/06/13 09:59:23;;;;;;;7.53;6.32;;;34.80;38.70;;;;;;5077803;28;20021;-11
2022/06/13 10:02:10;;;;;;;8.20;5.85;;;34.90;39.80;;;;;;5076634;28;20550;-11
2022/06/13 10:05:02;;;;;;;7.32;5.45;;;35.10;39.50;;;;;;5076648;28;20029;-11
2022/06/13 10:07:39;;;;;;;9.47;6.60;;;35.40;39.30;;;;;;5076834;28;20039;-11
2022/06/13 10:10:22;;;;;;;11.50;7.72;;;35.60;38.90;;;;;;5076542;28;20071;-12
2022/06/13 10:12:50;;;;;;;9.63;6.40;;;35.70;38.50;;;;;;5076460;28;20078;-11
2022/06/13 10:15:27;;;;;;;11.52;7.50;;;36.00;38.80;;;;;;5076669;28;20101;-11
2022/06/13 10:18:12;;;;;;;9.27;6.75;;;36.10;37.30;;;;;;5077069;28;20060;-11
2022/06/13 10:20:38;;;;;;;7.30;5.95;;;36.20;37.80;;;;;;5076012;28;20064;-11
2022/06/13 10:23:04;;;;;;;7.65;5.85;;;36.30;37.50;;;;;;5076704;28;20024;-12
2022/06/13 10:25:48;;;;;;;9.77;5.10;;;36.50;37.60;;;;;;5076512;28;20024;-11
2022/06/13 10:28:32;;;;;;;6.63;4.03;;;36.80;36.70;;;;;;5075927;28;20035;-11
2022/06/13 10:31:26;;;;;;;4.72;3.80;;;37.10;35.80;;;;;;5076156;28;20052;-11
2022/06/13 10:34:26;;;;;;;8.60;6.07;;;37.60;32.60;;;;;;5076325;28;20029;-11
2022/06/13 10:37:00;;;;;;;5.70;5.18;;;37.90;33.40;;;;;;5075901;28;20484;-11
2022/06/13 10:39:28;;;;;;;7.18;4.97;;;38.10;33.80;;;;;;5075983;28;20024;-11
2022/06/13 10:42:02;;;;;;;5.45;4.78;;;38.20;34.20;;;;;;5076219;28;20032;-11
2022/06/13 10:44:28;;;;;;;7.05;4.22;;;38.10;33.80;;;;;;5075668;28;20481;-11
2022/06/13 10:47:03;;;;;;;7.00;4.70;;;38.20;34.10;;;;;;5076079;28;20031;-11
2022/06/13 10:49:42;;;;;;;6.28;4.30;;;38.20;33.90;;;;;;5075809;28;20121;-11
2022/06/13 10:52:14;;;;;;;6.30;4.50;;;38.40;34.10;;;;;;5075712;28;20024;-11
2022/06/13 10:54:48;;;;;;;4.60;4.13;;;38.70;32.90;;;;;;5075765;28;20481;-10
2022/06/13 10:57:31;;;;;;;4.18;3.72;;;39.00;32.40;;;;;;5075658;28;20020;-11
2022/06/13 11:00:13;;;;;;;5.15;4.05;;;39.40;31.90;;;;;;5075637;28;20032;-11
2022/06/13 11:02:39;;;;;;;4.85;4.00;;;39.90;31.10;;;;;;5075580;28;20031;-11
2022/06/13 11:05:19;;;;;;;6.05;4.07;;;40.10;31.20;;;;;;5074434;28;20032;-11
2022/06/13 11:07:55;;;;;;;5.80;4.50;;;40.40;30.00;;;;;;5075373;28;20481;-12
2022/06/13 11:10:41;;;;;;;7.65;5.50;;;40.70;29.80;;;;;;5075701;28;20028;-12
2022/06/13 11:13:18;;;;;;;5.65;4.53;;;40.80;30.10;;;;;;5075714;28;20116;-12
2022/06/13 11:22:45;;;;;;;5.90;4.88;;;40.90;30.20;;;;;;5075579;28;20126;-11
2022/06/13 11:24:49;;;;;;;8.52;5.55;;;41.10;29.50;;;;;;5074301;28;20039;-11
2022/06/13 11:27:40;;;;;;;7.45;5.35;;;41.20;29.30;;;;;;5075424;28;20033;-11
2022/06/13 11:30:31;;;;;;;6.78;5.20;;;41.10;28.30;;;;;;5075336;28;20377;-11
2022/06/13 11:33:01;;;;;;;5.32;4.32;;;40.70;29.50;;;;;;5074909;28;20031;-11
2022/06/13 11:35:30;;;;;;;6.32;4.95;;;40.60;30.40;;;;;;5075543;28;20063;-11
2022/06/13 11:38:18;;;;;;;7.47;4.88;;;40.90;29.60;;;;;;5075616;28;20051;-10
2022/06/13 11:41:18;;;;;;;7.20;5.00;;;40.80;29.50;;;;;;5075051;28;20038;-12
2022/06/13 11:44:11;;;;;;;4.97;3.90;;;40.20;30.20;;;;;;5073575;28;20040;-10
2022/06/13 11:46:55;;;;;;;5.90;4.72;;;39.90;30.60;;;;;;5074783;28;20025;-12
2022/06/13 11:49:45;;;;;;;8.98;5.53;;;39.50;30.30;;;;;;5074640;28;20088;-10
2022/06/13 11:53:35;;;;;;;4.95;4.40;;;38.90;30.90;;;;;;5074705;28;20024;-11
2022/06/13 11:55:01;;;;;;;5.45;3.80;;;38.40;31.90;;;;;;5074578;28;20025;-11
2022/06/13 11:57:39;;;;;;;7.03;4.45;;;38.00;32.60;;;;;;5074435;28;20044;-11
2022/06/13 12:00:23;;;;;;;7.38;4.97;;;37.90;33.10;;;;;;5074639;28;20020;-11
2022/06/13 12:02:49;;;;;;;7.93;4.40;;;37.70;33.70;;;;;;5074352;28;20441;-12
2022/06/13 12:05:22;;;;;;;4.97;4.05;;;37.60;34.00;;;;;;5074675;28;20491;-11
2022/06/13 12:08:16;;;;;;;6.53;4.55;;;37.40;34.30;;;;;;5074476;28;20109;-11
2022/06/13 12:10:56;;;;;;;5.35;4.78;;;37.40;34.10;;;;;;5074216;28;20392;-11
2022/06/13 12:13:22;;;;;;;5.75;4.72;;;37.50;33.80;;;;;;5074554;28;20020;-11
2022/06/13 12:16:25;;;;;;;6.28;4.30;;;37.30;34.30;;;;;;5074007;28;20024;-11
2022/06/13 12:19:00;;;;;;;4.97;4.25;;;37.20;35.00;;;;;;5074430;28;20068;-12
2022/06/13 12:21:56;;;;;;;6.13;4.30;;;37.20;35.10;;;;;;5073944;28;20016;-11
2022/06/13 12:24:37;;;;;;;8.82;4.75;;;37.40;35.10;;;;;;5073665;28;20094;-11
2022/06/13 12:27:32;;;;;;;5.93;5.03;;;37.60;34.10;;;;;;5073984;28;20541;-11
2022/06/13 12:30:19;;;;;;;5.03;3.78;;;37.50;33.90;;;;;;5073598;28;20024;-11
2022/06/13 12:33:11;;;;;;;6.03;4.28;;;37.40;34.20;;;;;;5073684;28;20488;-12
2022/06/13 12:36:11;;;;;;;5.60;4.27;;;37.50;32.80;;;;;;5072946;28;20028;-11
2022/06/13 12:38:50;;;;;;;5.90;3.90;;;37.40;32.90;;;;;;5073517;28;20259;-12
2022/06/13 12:41:49;;;;;;;4.13;3.72;;;37.30;33.60;;;;;;5073958;28;20024;-11
2022/06/13 12:44:31;;;;;;;4.32;3.85;;;37.40;33.60;;;;;;5068405;28;20039;-11
2022/06/13 12:47:12;;;;;;;4.65;3.85;;;37.50;33.70;;;;;;5074762;28;20021;-11
2022/06/13 12:49:55;;;;;;;3.83;3.50;;;37.70;33.60;;;;;;5073748;28;20504;-11
2022/06/13 12:52:46;;;;;;;4.10;3.70;;;37.90;33.10;;;;;;5073203;28;20107;-11
2022/06/13 12:55:24;;;;;;;5.50;3.60;;;37.70;32.50;;;;;;5073391;28;20124;-13
2022/06/13 12:58:17;;;;;;;4.18;3.33;;;37.70;32.20;;;;;;5073190;28;20055;-11
2022/06/13 13:00:49;;;;;;;4.57;3.50;;;37.60;32.50;;;;;;5073617;28;20041;-12
2022/06/13 13:03:17;;;;;;;5.43;3.47;;;37.90;32.00;;;;;;5073491;28;20040;-12
2022/06/13 13:06:09;;;;;;;3.85;3.28;;;37.90;31.90;;;;;;5073280;28;20480;-11
2022/06/13 13:08:50;;;;;;;;;;;37.90;31.60;;;;;;5073501;28;20021;-12
2022/06/13 13:11:30;;;;;;;5.13;3.05;;;37.90;32.10;;;;;;5073266;28;19904;-12
2022/06/13 13:14:23;;;;;;;4.18;2.95;;;38.10;32.30;;;;;;5073857;28;20103;-12
2022/06/13 13:17:27;;;;;;;6.80;3.40;;;38.20;31.10;;;;;;5073452;28;20055;-12
2022/06/13 13:20:04;;;;;;;4.68;3.10;;;38.10;31.20;;;;;;5073194;28;20036;-12
2022/06/13 13:22:58;;;;;;;4.53;3.08;;;38.20;31.70;;;;;;5072834;28;20029;-12
2022/06/13 13:25:34;;;;;;;6.45;3.00;;;38.40;31.10;;;;;;5073390;28;20024;-12
2022/06/13 13:28:19;;;;;;;4.45;2.70;;;38.40;31.00;;;;;;5072353;28;20488;-11
2022/06/13 13:31:03;;;;;;;3.10;2.80;;;38.60;31.40;;;;;;5073669;28;20028;-11
2022/06/13 13:34:09;;;;;;;4.00;2.97;;;38.90;31.40;;;;;;5073285;28;20025;-11
2022/06/13 13:36:49;;;;;;;3.58;3.15;;;39.40;31.40;;;;;;5072843;28;20098;-12
2022/06/13 13:39:25;;;;;;;6.25;3.15;;;39.70;30.40;;;;;;5072963;28;20028;-11
2022/06/13 13:42:00;;;;;;;5.50;3.30;;;39.80;30.20;;;;;;5072920;28;20032;-11